createdAt,value
2019-02-24T00:00:51.955Z,95.60
2019-02-24T00:03:20.511Z,95.70
2019-02-24T00:05:48.999Z,95.60
2019-02-24T00:08:17.432Z,95.60
2019-02-24T00:10:45.913Z,95.50
2019-02-24T00:13:14.321Z,95.60
2019-02-24T00:15:42.812Z,95.90
2019-02-24T00:18:11.343Z,95.60
2019-02-24T00:20:39.768Z,95.60
2019-02-24T00:23:08.400Z,95.70
2019-02-24T00:25:36.806Z,95.70
2019-02-24T00:28:07.382Z,95.70
2019-02-24T00:30:35.253Z,95.80
2019-02-24T00:33:03.637Z,95.70
2019-02-24T00:35:32.161Z,95.80
2019-02-24T00:38:00.594Z,95.70
2019-02-24T00:40:29.156Z,95.70
2019-02-24T00:42:57.570Z,95.90
2019-02-24T00:45:26.018Z,95.90
2019-02-24T00:47:54.442Z,95.90
2019-02-24T00:50:22.922Z,96.00
2019-02-24T00:52:51.334Z,96.10
2019-02-24T00:55:19.823Z,96.00
2019-02-24T00:57:58.694Z,96.00
2019-02-24T01:00:27.382Z,96.10
2019-02-24T01:02:55.862Z,96.10
2019-02-24T01:05:24.272Z,96.10
2019-02-24T01:07:52.687Z,96.10
2019-02-24T01:10:21.089Z,96.10
2019-02-24T01:12:49.585Z,96.10
2019-02-24T01:15:17.999Z,96.20
2019-02-24T01:17:46.527Z,96.20
2019-02-24T01:20:14.944Z,96.40
2019-02-24T01:22:43.427Z,96.40
2019-02-24T01:25:11.839Z,96.40
2019-02-24T01:27:40.319Z,96.30
2019-02-24T01:30:10.582Z,96.60
2019-02-24T01:32:38.994Z,96.40
2019-02-24T01:35:08.383Z,96.50
2019-02-24T01:37:36.804Z,96.50
2019-02-24T01:40:07.060Z,96.50
2019-02-24T01:42:35.770Z,96.40
2019-02-24T01:45:05.018Z,96.40
2019-02-24T01:47:33.442Z,96.60
2019-02-24T01:50:02.809Z,96.60
2019-02-24T01:52:31.210Z,96.50
2019-02-24T01:54:59.699Z,96.50
2019-02-24T01:57:28.114Z,96.50
2019-02-24T01:59:56.606Z,96.60
2019-02-24T02:02:25.024Z,96.70
2019-02-24T02:04:53.507Z,96.60
2019-02-24T02:07:21.928Z,96.70
2019-02-24T02:09:50.346Z,96.60
2019-02-24T02:12:18.760Z,96.60
2019-02-24T02:14:47.251Z,96.70
2019-02-24T02:17:15.663Z,96.50
2019-02-24T02:19:44.147Z,96.50
2019-02-24T02:22:12.566Z,96.50
2019-02-24T02:24:41.048Z,96.50
2019-02-24T02:27:09.469Z,96.60
2019-02-24T02:29:37.949Z,96.40
2019-02-24T02:32:30.352Z,96.50
2019-02-24T02:34:58.830Z,96.50
2019-02-24T02:37:27.240Z,96.50
2019-02-24T02:39:55.691Z,96.50
2019-02-24T02:42:24.105Z,96.40
2019-02-24T02:44:52.590Z,96.70
2019-02-24T02:47:21.005Z,96.40
2019-02-24T02:49:49.415Z,96.50
2019-02-24T02:52:17.931Z,96.50
2019-02-24T02:54:46.354Z,96.50
2019-02-24T02:57:14.728Z,96.40
2019-02-24T02:59:43.111Z,96.40
2019-02-24T03:02:11.603Z,96.40
2019-02-24T03:04:40.010Z,96.40
2019-02-24T03:07:18.953Z,96.30
2019-02-24T03:09:47.362Z,96.50
2019-02-24T03:12:15.761Z,96.40
2019-02-24T03:14:44.136Z,96.30
2019-02-24T03:17:12.570Z,96.30
2019-02-24T03:19:40.960Z,96.30
2019-02-24T03:22:09.444Z,96.40
2019-02-24T03:24:37.863Z,96.30
2019-02-24T03:27:06.346Z,96.40
2019-02-24T03:29:34.763Z,96.30
2019-02-24T03:32:03.249Z,96.40
2019-02-24T03:34:31.659Z,96.40
2019-02-24T03:37:00.072Z,96.50
2019-02-24T03:39:28.483Z,96.30
2019-02-24T03:41:57.000Z,96.30
2019-02-24T03:44:25.381Z,96.30
2019-02-24T03:46:53.860Z,96.40
2019-02-24T03:49:22.271Z,96.40
2019-02-24T03:51:50.715Z,96.30
2019-02-24T03:54:19.132Z,96.40
2019-02-24T03:56:47.650Z,96.40
2019-02-24T03:59:16.062Z,96.50
2019-02-24T04:01:44.552Z,96.30
2019-02-24T04:04:15.890Z,96.30
2019-02-24T04:06:44.312Z,96.40
2019-02-24T04:09:12.726Z,96.50
2019-02-24T04:11:41.203Z,96.50
2019-02-24T04:14:09.728Z,96.40
2019-02-24T04:16:38.138Z,96.60
2019-02-24T04:19:06.551Z,96.60
2019-02-24T04:21:34.971Z,96.60
2019-02-24T04:24:03.398Z,96.60
2019-02-24T04:26:31.811Z,96.60
2019-02-24T04:29:00.296Z,96.50
2019-02-24T04:31:28.721Z,96.60
2019-02-24T04:33:57.151Z,96.60
2019-02-24T04:36:25.549Z,96.60
2019-02-24T04:38:54.043Z,96.70
2019-02-24T04:41:22.457Z,96.60
2019-02-24T04:43:50.893Z,96.60
2019-02-24T04:46:19.323Z,96.70
2019-02-24T04:48:47.815Z,96.60
2019-02-24T04:51:16.222Z,96.60
2019-02-24T04:53:44.712Z,96.70
2019-02-24T04:56:13.125Z,96.70
2019-02-24T04:58:41.617Z,96.70
2019-02-24T05:01:10.026Z,96.80
2019-02-24T05:03:38.444Z,96.70
2019-02-24T05:06:06.922Z,96.70
2019-02-24T05:08:35.338Z,96.80
2019-02-24T05:11:03.755Z,96.70
2019-02-24T05:13:32.171Z,96.70
2019-02-24T05:16:00.652Z,96.60
2019-02-24T05:18:29.095Z,96.70
2019-02-24T05:20:57.512Z,96.80
2019-02-24T05:23:25.996Z,96.90
2019-02-24T05:25:54.413Z,96.80
2019-02-24T05:28:22.899Z,96.80
2019-02-24T05:30:51.319Z,96.90
2019-02-24T05:33:19.738Z,96.80
2019-02-24T05:35:48.146Z,96.90
2019-02-24T05:38:16.640Z,96.80
2019-02-24T05:40:45.050Z,96.80
2019-02-24T05:43:13.545Z,96.80
2019-02-24T05:45:41.959Z,96.80
2019-02-24T05:48:10.376Z,96.80
2019-02-24T05:50:38.809Z,96.90
2019-02-24T05:53:07.224Z,97.00
2019-02-24T05:55:35.594Z,96.90
2019-02-24T05:58:03.975Z,96.90
2019-02-24T06:00:32.454Z,96.90
2019-02-24T06:03:00.867Z,96.90
2019-02-24T06:05:29.750Z,97.00
2019-02-24T06:07:58.178Z,97.00
2019-02-24T06:10:26.580Z,97.00
2019-02-24T06:12:54.998Z,97.00
2019-02-24T06:15:23.426Z,97.00
2019-02-24T06:17:51.840Z,97.00
2019-02-24T06:20:20.377Z,96.90
2019-02-24T06:22:48.736Z,97.00
2019-02-24T06:25:17.131Z,96.90
2019-02-24T06:27:45.545Z,96.90
2019-02-24T06:30:13.987Z,96.80
2019-02-24T06:32:42.404Z,96.90
2019-02-24T06:35:10.815Z,96.90
2019-02-24T06:37:39.231Z,96.80
2019-02-24T06:40:08.353Z,96.80
2019-02-24T06:42:36.771Z,96.80
2019-02-24T06:45:07.391Z,96.90
2019-02-24T06:47:35.812Z,96.90
2019-02-24T06:50:06.320Z,96.90
2019-02-24T06:52:34.717Z,96.90
2019-02-24T06:55:03.175Z,97.00
2019-02-24T06:57:31.583Z,96.90
2019-02-24T07:00:00.261Z,96.90
2019-02-24T07:02:28.782Z,96.90
2019-02-24T07:04:57.210Z,96.80
2019-02-24T07:07:25.691Z,96.90
2019-02-24T07:09:54.102Z,97.20
2019-02-24T07:12:22.595Z,96.90
2019-02-24T07:14:51.007Z,96.90
2019-02-24T07:17:19.498Z,96.90
2019-02-24T07:19:47.912Z,97.20
2019-02-24T07:22:16.331Z,97.20
2019-02-24T07:24:44.746Z,97.20
2019-02-24T07:27:13.380Z,97.20
2019-02-24T07:29:41.757Z,97.30
2019-02-24T07:32:10.202Z,97.40
2019-02-24T07:34:38.632Z,97.40
2019-02-24T07:37:12.958Z,97.40
2019-02-24T07:39:37.112Z,97.40
2019-02-24T07:42:07.251Z,97.40
2019-02-24T07:44:35.619Z,97.60
2019-02-24T07:47:04.028Z,97.40
2019-02-24T07:49:32.438Z,97.40
2019-02-24T07:52:00.926Z,97.50
2019-02-24T07:54:29.343Z,97.30
2019-02-24T07:56:57.847Z,97.60
2019-02-24T07:59:26.270Z,97.30
2019-02-24T08:01:54.755Z,97.20
2019-02-24T08:04:23.171Z,97.10
2019-02-24T08:06:51.617Z,97.10
2019-02-24T08:09:20.078Z,97.10
2019-02-24T08:11:48.520Z,97.10
2019-02-24T08:14:16.998Z,97.20
2019-02-24T08:16:45.448Z,97.20
2019-02-24T08:19:13.906Z,97.10
2019-02-24T08:21:42.323Z,96.90
2019-02-24T08:24:10.807Z,96.80
2019-02-24T08:26:39.230Z,96.90
2019-02-24T08:29:07.719Z,96.80
2019-02-24T08:31:36.136Z,96.80
2019-02-24T08:34:04.626Z,96.70
2019-02-24T08:36:33.039Z,96.70
2019-02-24T08:39:01.523Z,96.70
2019-02-24T08:41:30.029Z,96.50
2019-02-24T08:43:58.537Z,96.60
2019-02-24T08:46:26.943Z,96.40
2019-02-24T08:48:55.363Z,96.40
2019-02-24T08:51:23.779Z,96.40
2019-02-24T08:53:52.305Z,96.30
2019-02-24T08:56:20.763Z,96.50
2019-02-24T08:58:49.258Z,96.60
2019-02-24T09:01:17.627Z,96.50
2019-02-24T09:03:46.003Z,96.40
2019-02-24T09:06:14.423Z,96.30
2019-02-24T09:08:42.971Z,96.30
2019-02-24T09:11:11.395Z,96.30
2019-02-24T09:13:39.946Z,96.30
2019-02-24T09:16:08.391Z,96.40
2019-02-24T09:18:37.075Z,96.40
2019-02-24T09:21:05.489Z,96.40
2019-02-24T09:23:33.917Z,96.40
2019-02-24T09:26:02.353Z,96.40
2019-02-24T09:28:30.756Z,96.50
2019-02-24T09:31:01.107Z,96.60
2019-02-24T09:33:29.243Z,96.30
2019-02-24T09:35:57.671Z,96.00
2019-02-24T09:38:26.171Z,96.00
2019-02-24T09:40:54.594Z,96.20
2019-02-24T09:43:23.000Z,96.20
2019-02-24T09:45:51.417Z,96.00
2019-02-24T09:48:19.830Z,95.80
2019-02-24T09:50:48.310Z,95.60
2019-02-24T09:53:36.151Z,95.40
2019-02-24T09:56:04.646Z,95.10
2019-02-24T09:58:33.063Z,95.10
2019-02-24T10:01:09.998Z,95.10
2019-02-24T10:03:31.650Z,95.10
2019-02-24T10:06:00.067Z,95.40
2019-02-24T10:08:28.545Z,95.10
2019-02-24T10:10:56.956Z,94.90
2019-02-24T10:13:25.387Z,95.20
2019-02-24T10:15:53.934Z,94.60
2019-02-24T10:18:22.350Z,94.60
2019-02-24T10:20:50.841Z,94.80
2019-02-24T10:23:19.253Z,94.90
2019-02-24T10:25:47.751Z,94.80
2019-02-24T10:28:16.203Z,94.70
2019-02-24T10:30:44.686Z,94.80
2019-02-24T10:33:13.099Z,94.80
2019-02-24T10:35:41.513Z,95.00
2019-02-24T10:38:09.943Z,94.70
2019-02-24T10:40:38.402Z,94.50
2019-02-24T10:43:06.815Z,94.60
2019-02-24T10:45:35.328Z,94.40
2019-02-24T10:48:07.495Z,94.40
2019-02-24T10:50:34.001Z,94.30
2019-02-24T10:53:02.432Z,94.20
2019-02-24T10:55:30.913Z,93.90
2019-02-24T10:57:59.323Z,93.60
2019-02-24T11:00:27.830Z,93.50
2019-02-24T11:02:56.240Z,93.60
2019-02-24T11:05:24.655Z,93.20
2019-02-24T11:07:53.074Z,93.10
2019-02-24T11:10:21.501Z,92.90
2019-02-24T11:12:49.989Z,92.90
2019-02-24T11:15:18.398Z,92.90
2019-02-24T11:17:46.887Z,92.70
2019-02-24T11:20:17.142Z,92.70
2019-02-24T11:22:45.610Z,92.70
2019-02-24T11:25:14.046Z,92.70
2019-02-24T11:27:42.542Z,92.50
2019-02-24T11:30:12.291Z,92.30
2019-02-24T11:32:40.703Z,92.20
2019-02-24T11:35:12.834Z,92.10
2019-02-24T11:37:41.319Z,92.10
2019-02-24T11:40:17.757Z,91.90
2019-02-24T11:42:46.175Z,91.50
2019-02-24T11:45:14.550Z,91.50
2019-02-24T11:47:42.999Z,91.50
2019-02-24T11:50:12.468Z,91.40
2019-02-24T11:52:40.953Z,91.30
2019-02-24T11:55:10.305Z,91.20
2019-02-24T11:57:38.859Z,91.20
2019-02-24T12:00:12.083Z,91.20
2019-02-24T12:02:41.807Z,91.20
2019-02-24T12:05:10.649Z,91.10
2019-02-24T12:07:39.071Z,91.10
2019-02-24T12:10:11.692Z,90.90
2019-02-24T12:12:40.196Z,90.90
2019-02-24T12:15:12.793Z,90.70
2019-02-24T12:17:41.282Z,90.80
2019-02-24T12:20:14.378Z,90.90
2019-02-24T12:22:42.790Z,90.80
2019-02-24T12:25:11.758Z,90.80
2019-02-24T12:27:40.174Z,90.80
2019-02-24T12:30:11.799Z,90.90
2019-02-24T12:32:40.208Z,90.80
2019-02-24T12:35:08.707Z,90.80
2019-02-24T12:37:37.169Z,90.30
2019-02-24T12:40:08.983Z,90.10
2019-02-24T12:42:37.403Z,90.30
2019-02-24T12:45:08.482Z,90.20
2019-02-24T12:47:36.914Z,90.10
2019-02-24T12:50:08.767Z,89.50
2019-02-24T12:52:37.180Z,90.00
2019-02-24T12:55:07.038Z,90.10
2019-02-24T12:57:35.455Z,90.00
2019-02-24T13:00:06.444Z,89.60
2019-02-24T13:02:34.163Z,89.80
2019-02-24T13:05:02.650Z,89.50
2019-02-24T13:07:31.062Z,89.40
2019-02-24T13:09:59.557Z,89.10
2019-02-24T13:12:27.975Z,88.90
2019-02-24T13:14:56.388Z,87.90
2019-02-24T13:17:24.806Z,88.20
2019-02-24T13:19:53.214Z,88.10
2019-02-24T13:22:21.631Z,88.40
2019-02-24T13:24:50.283Z,87.60
2019-02-24T13:27:18.695Z,87.50
2019-02-24T13:29:47.182Z,87.50
2019-02-24T13:32:15.594Z,87.50
2019-02-24T13:34:44.014Z,87.10
2019-02-24T13:37:12.432Z,87.50
2019-02-24T13:39:40.918Z,87.80
2019-02-24T13:42:09.440Z,88.00
2019-02-24T13:44:37.841Z,87.70
2019-02-24T13:47:06.262Z,87.70
2019-02-24T13:49:34.683Z,87.50
2019-02-24T13:52:03.280Z,87.30
2019-02-24T13:54:31.684Z,87.60
2019-02-24T13:57:00.135Z,87.50
2019-02-24T13:59:28.552Z,87.20
2019-02-24T14:01:56.997Z,87.90
2019-02-24T14:04:25.415Z,86.80
2019-02-24T14:06:53.911Z,86.70
2019-02-24T14:09:22.321Z,86.50
2019-02-24T14:11:50.807Z,86.60
2019-02-24T14:14:19.230Z,86.80
2019-02-24T14:16:47.645Z,86.40
2019-02-24T14:19:16.069Z,86.30
2019-02-24T14:21:44.493Z,86.50
2019-02-24T14:24:12.915Z,86.30
2019-02-24T14:26:41.396Z,86.60
2019-02-24T14:29:09.806Z,86.70
2019-02-24T14:31:38.218Z,87.10
2019-02-24T14:34:06.631Z,87.10
2019-02-24T14:36:35.054Z,87.70
2019-02-24T14:39:04.035Z,87.90
2019-02-24T14:41:32.499Z,88.00
2019-02-24T14:44:00.871Z,88.00
2019-02-24T14:46:29.360Z,87.80
2019-02-24T14:48:57.778Z,88.00
2019-02-24T14:51:26.191Z,88.50
2019-02-24T14:53:54.656Z,88.90
2019-02-24T14:56:23.144Z,89.40
2019-02-24T14:58:51.563Z,90.00
2019-02-24T15:01:20.063Z,90.00
2019-02-24T15:03:48.542Z,90.00
2019-02-24T15:06:16.963Z,90.30
2019-02-24T15:08:45.337Z,90.10
2019-02-24T15:11:13.718Z,90.00
2019-02-24T15:13:42.227Z,90.00
2019-02-24T15:16:11.831Z,90.00
2019-02-24T15:18:40.424Z,90.20
2019-02-24T15:21:08.851Z,90.40
2019-02-24T15:23:37.286Z,90.50
2019-02-24T15:26:05.698Z,90.10
2019-02-24T15:28:34.119Z,90.10
2019-02-24T15:31:02.531Z,89.60
2019-02-24T15:33:30.950Z,89.40
2019-02-24T15:35:59.358Z,89.20
2019-02-24T15:38:27.855Z,89.10
2019-02-24T15:40:56.271Z,89.30
2019-02-24T15:43:24.752Z,89.10
2019-02-24T15:45:53.170Z,88.90
2019-02-24T15:48:21.590Z,88.70
2019-02-24T15:50:50.006Z,89.00
2019-02-24T15:53:18.425Z,89.10
2019-02-24T15:55:46.852Z,89.20
2019-02-24T15:58:15.318Z,89.70
2019-02-24T16:00:43.731Z,89.80
2019-02-24T16:03:12.148Z,89.40
2019-02-24T16:05:40.560Z,89.20
2019-02-24T16:08:08.979Z,89.40
2019-02-24T16:10:37.394Z,89.80
2019-02-24T16:13:05.886Z,89.60
2019-02-24T16:15:34.297Z,89.90
2019-02-24T16:18:02.789Z,90.10
2019-02-24T16:20:33.126Z,90.30
2019-02-24T16:23:01.535Z,90.50
2019-02-24T16:25:30.027Z,90.50
2019-02-24T16:27:58.447Z,90.80
2019-02-24T16:30:26.863Z,90.70
2019-02-24T16:32:55.279Z,90.70
2019-02-24T16:35:23.770Z,90.60
2019-02-24T16:37:52.181Z,90.60
2019-02-24T16:40:25.195Z,90.60
2019-02-24T16:42:53.667Z,90.20
2019-02-24T16:45:22.115Z,89.90
2019-02-24T16:47:50.532Z,89.20
2019-02-24T16:50:23.624Z,89.30
2019-02-24T16:52:52.038Z,88.50
2019-02-24T16:55:20.515Z,88.50
2019-02-24T16:57:48.947Z,88.60
2019-02-24T17:00:19.935Z,89.10
2019-02-24T17:02:47.727Z,88.60
2019-02-24T17:05:16.147Z,88.00
2019-02-24T17:07:44.697Z,87.60
2019-02-24T17:10:15.915Z,87.50
2019-02-24T17:12:44.427Z,87.60
2019-02-24T17:15:13.215Z,87.90
2019-02-24T17:17:41.630Z,88.40
2019-02-24T17:20:12.689Z,89.20
2019-02-24T17:22:41.119Z,88.60
2019-02-24T17:25:10.280Z,88.50
2019-02-24T17:27:38.776Z,89.60
2019-02-24T17:30:10.352Z,89.10
2019-02-24T17:32:38.805Z,89.10
2019-02-24T17:35:07.635Z,89.30
2019-02-24T17:37:36.046Z,89.60
2019-02-24T17:40:07.425Z,89.70
2019-02-24T17:42:35.859Z,90.00
2019-02-24T17:45:06.302Z,90.20
2019-02-24T17:47:34.715Z,90.30
2019-02-24T17:50:03.407Z,90.40
2019-02-24T17:52:31.816Z,90.60
2019-02-24T17:55:00.343Z,90.60
2019-02-24T17:57:28.813Z,90.60
2019-02-24T17:59:57.302Z,90.70
2019-02-24T18:02:25.711Z,90.80
2019-02-24T18:04:54.198Z,90.90
2019-02-24T18:07:49.362Z,91.00
2019-02-24T18:10:17.843Z,91.10
2019-02-24T18:12:46.331Z,91.20
2019-02-24T18:15:14.818Z,91.40
2019-02-24T18:17:43.242Z,91.40
2019-02-24T18:20:17.045Z,91.40
2019-02-24T18:22:45.464Z,91.60
2019-02-24T18:25:13.955Z,91.70
2019-02-24T18:27:42.367Z,91.80
2019-02-24T18:30:16.586Z,91.70
2019-02-24T18:32:45.006Z,91.80
2019-02-24T18:35:13.523Z,91.90
2019-02-24T18:37:41.945Z,92.00
2019-02-24T18:40:12.298Z,92.10
2019-02-24T18:42:40.715Z,92.20
2019-02-24T18:45:11.551Z,92.20
2019-02-24T18:47:39.971Z,92.60
2019-02-24T18:50:16.259Z,92.30
2019-02-24T18:52:44.797Z,92.30
2019-02-24T18:55:13.539Z,92.50
2019-02-24T18:57:41.955Z,92.40
2019-02-24T19:00:16.863Z,92.40
2019-02-24T19:02:45.366Z,92.40
2019-02-24T19:05:13.782Z,92.60
2019-02-24T19:07:42.547Z,92.50
2019-02-24T19:10:14.221Z,92.60
2019-02-24T19:12:42.710Z,92.60
2019-02-24T19:15:14.028Z,92.60
2019-02-24T19:17:42.452Z,92.50
2019-02-24T19:20:16.042Z,92.60
2019-02-24T19:22:44.524Z,92.60
2019-02-24T19:25:12.943Z,92.50
2019-02-24T19:27:41.447Z,92.60
2019-02-24T19:30:12.403Z,92.60
2019-02-24T19:32:40.130Z,92.60
2019-02-24T19:35:10.363Z,92.50
2019-02-24T19:37:38.779Z,92.60
2019-02-24T19:40:22.382Z,92.60
2019-02-24T19:42:50.758Z,92.60
2019-02-24T19:45:28.027Z,92.60
2019-02-24T19:47:56.460Z,92.50
2019-02-24T19:50:24.954Z,92.60
2019-02-24T19:52:53.378Z,92.60
2019-02-24T19:55:21.799Z,92.50
2019-02-24T19:57:50.216Z,92.90
2019-02-24T20:00:25.777Z,92.50
2019-02-24T20:02:54.276Z,92.30
2019-02-24T20:05:22.761Z,92.20
2019-02-24T20:07:51.243Z,92.10
2019-02-24T20:10:29.949Z,92.00
2019-02-24T20:12:58.437Z,92.00
2019-02-24T20:15:27.057Z,91.80
2019-02-24T20:17:55.605Z,91.60
2019-02-24T20:20:24.082Z,91.50
2019-02-24T20:22:52.497Z,91.50
2019-02-24T20:25:24.469Z,91.60
2019-02-24T20:27:52.951Z,91.70
2019-02-24T20:30:23.709Z,91.70
2019-02-24T20:32:52.205Z,91.70
2019-02-24T20:35:20.718Z,91.80
2019-02-24T20:37:49.180Z,91.90
2019-02-24T20:40:17.654Z,92.00
2019-02-24T20:42:46.173Z,92.10
2019-02-24T20:45:22.570Z,92.30
2019-02-24T20:47:51.024Z,92.40
2019-02-24T20:50:22.770Z,92.40
2019-02-24T20:52:51.209Z,92.40
2019-02-24T20:55:19.687Z,92.30
2019-02-24T20:57:48.264Z,92.30
2019-02-24T21:00:19.652Z,92.30
2019-02-24T21:02:48.087Z,92.30
2019-02-24T21:05:16.504Z,92.20
2019-02-24T21:07:44.981Z,92.30
2019-02-24T21:10:13.398Z,92.50
2019-02-24T21:12:41.882Z,92.50
2019-02-24T21:15:12.846Z,92.50
2019-02-24T21:17:40.561Z,92.60
2019-02-24T21:20:19.242Z,92.60
2019-02-24T21:22:47.659Z,92.60
2019-02-24T21:25:16.070Z,92.80
2019-02-24T21:27:44.483Z,92.80
2019-02-24T21:30:15.966Z,93.00
2019-02-24T21:32:44.395Z,92.90
2019-02-24T21:35:12.889Z,93.10
2019-02-24T21:37:41.303Z,93.40
2019-02-24T21:40:17.256Z,93.10
2019-02-24T21:42:45.744Z,93.10
2019-02-24T21:45:20.249Z,93.20
2019-02-24T21:47:48.701Z,93.20
2019-02-24T21:50:17.548Z,93.20
2019-02-24T21:52:45.965Z,93.30
2019-02-24T21:55:14.467Z,93.30
2019-02-24T21:57:42.880Z,93.30
2019-02-24T22:00:23.339Z,93.40
2019-02-24T22:02:51.866Z,93.50
2019-02-24T22:05:20.345Z,93.60
2019-02-24T22:07:48.820Z,93.60
2019-02-24T22:10:17.242Z,93.60
2019-02-24T22:12:45.659Z,93.60
2019-02-24T22:15:21.782Z,93.90
2019-02-24T22:17:50.199Z,93.90
2019-02-24T22:20:18.711Z,94.10
2019-02-24T22:22:47.136Z,94.00
2019-02-24T22:25:15.891Z,94.20
2019-02-24T22:27:44.309Z,94.20
2019-02-24T22:30:19.934Z,94.40
2019-02-24T22:32:48.431Z,94.30
2019-02-24T22:35:16.939Z,94.30
2019-02-24T22:37:45.335Z,94.40
2019-02-24T22:40:16.599Z,94.50
2019-02-24T22:42:44.123Z,94.60
2019-02-24T22:45:16.733Z,94.90
2019-02-24T22:47:45.651Z,94.60
2019-02-24T22:50:14.615Z,94.50
2019-02-24T22:52:43.034Z,94.70
2019-02-24T22:55:13.096Z,94.60
2019-02-24T22:57:41.587Z,94.70
2019-02-24T23:00:29.199Z,94.60
2019-02-24T23:02:57.682Z,94.90
2019-02-24T23:05:26.172Z,94.80
2019-02-24T23:07:54.711Z,94.90
2019-02-24T23:10:23.107Z,94.90
2019-02-24T23:12:51.671Z,95.00
2019-02-24T23:15:20.087Z,95.00
2019-02-24T23:17:48.658Z,95.10
2019-02-24T23:20:17.071Z,95.10
2019-02-24T23:22:45.556Z,95.10
2019-02-24T23:25:13.972Z,95.10
2019-02-24T23:27:42.392Z,95.20
2019-02-24T23:30:10.809Z,95.30
2019-02-24T23:32:39.227Z,95.20
2019-02-24T23:35:07.648Z,95.20
2019-02-24T23:37:36.167Z,95.30
2019-02-24T23:40:07.130Z,95.30
2019-02-24T23:42:35.610Z,95.20
2019-02-24T23:45:10.284Z,95.30
2019-02-24T23:47:36.575Z,95.30
2019-02-24T23:50:09.854Z,95.30
2019-02-24T23:52:38.275Z,95.20
2019-02-24T23:55:07.585Z,95.30
2019-02-24T23:57:36.007Z,95.30
